sensor_id;sensor_type;location;lat;lon;timestamp;pressure;altitude;pressure_sealevel;temperature;humidity
60015;BME280;45867;52.480;6.056;2023-12-29T00:02:24;100290.56;;;8.61;100.00
60015;BME280;45867;52.480;6.056;2023-12-29T00:04:53;100237.72;;;8.56;100.00
60015;BME280;45867;52.480;6.056;2023-12-29T00:07:20;100237.19;;;8.69;100.00
60015;BME280;45867;52.480;6.056;2023-12-29T00:09:50;100199.44;;;8.58;100.00
60015;BME280;45867;52.480;6.056;2023-12-29T00:12:19;100202.84;;;8.69;100.00
60015;BME280;45867;52.480;6.056;2023-12-29T00:14:46;100192.28;;;8.64;100.00
60015;BME280;45867;52.480;6.056;2023-12-29T00:17:13;100181.97;;;8.73;100.00
60015;BME280;45867;52.480;6.056;2023-12-29T00:19:42;100170.38;;;8.63;100.00
60015;BME280;45867;52.480;6.056;2023-12-29T00:22:09;100151.38;;;8.61;100.00
60015;BME280;45867;52.480;6.056;2023-12-29T00:24:36;100129.75;;;8.54;100.00
60015;BME280;45867;52.480;6.056;2023-12-29T00:27:02;100134.97;;;8.70;100.00
60015;BME280;45867;52.480;6.056;2023-12-29T00:29:33;100110.69;;;8.68;100.00
60015;BME280;45867;52.480;6.056;2023-12-29T00:32:01;100138.34;;;8.85;100.00
60015;BME280;45867;52.480;6.056;2023-12-29T00:34:28;100098.53;;;8.61;100.00
60015;BME280;45867;52.480;6.056;2023-12-29T00:36:58;100123.56;;;8.79;100.00
60015;BME280;45867;52.480;6.056;2023-12-29T00:39:24;100103.47;;;8.78;100.00
60015;BME280;45867;52.480;6.056;2023-12-29T00:41:51;100131.47;;;8.89;100.00
60015;BME280;45867;52.480;6.056;2023-12-29T00:44:19;100123.00;;;8.93;100.00
60015;BME280;45867;52.480;6.056;2023-12-29T00:46:45;100163.59;;;9.12;100.00
60015;BME280;45867;52.480;6.056;2023-12-29T00:49:21;100126.13;;;8.95;100.00
60015;BME280;45867;52.480;6.056;2023-12-29T00:51:48;100148.63;;;8.92;100.00
60015;BME280;45867;52.480;6.056;2023-12-29T00:54:21;100180.78;;;9.09;100.00
60015;BME280;45867;52.480;6.056;2023-12-29T00:56:52;100164.47;;;8.92;100.00
60015;BME280;45867;52.480;6.056;2023-12-29T00:59:19;100173.97;;;8.98;100.00
60015;BME280;45867;52.480;6.056;2023-12-29T01:01:53;100194.56;;;8.96;100.00
60015;BME280;45867;52.480;6.056;2023-12-29T01:04:25;100170.56;;;8.87;100.00
60015;BME280;45867;52.480;6.056;2023-12-29T01:06:52;100186.88;;;9.05;100.00
60015;BME280;45867;52.480;6.056;2023-12-29T01:09:18;100182.16;;;8.97;100.00
60015;BME280;45867;52.480;6.056;2023-12-29T01:11:45;100188.97;;;9.08;100.00
60015;BME280;45867;52.480;6.056;2023-12-29T01:14:12;100172.44;;;8.87;100.00
60015;BME280;45867;52.480;6.056;2023-12-29T01:16:38;100153.41;;;8.85;100.00
60015;BME280;45867;52.480;6.056;2023-12-29T01:19:06;100101.69;;;8.74;100.00
60015;BME280;45867;52.480;6.056;2023-12-29T01:21:33;100079.13;;;8.86;100.00
60015;BME280;45867;52.480;6.056;2023-12-29T01:24:00;100047.25;;;8.73;100.00
60015;BME280;45867;52.480;6.056;2023-12-29T01:26:26;100016.38;;;8.68;100.00
60015;BME280;45867;52.480;6.056;2023-12-29T01:28:54;100023.72;;;8.81;100.00
60015;BME280;45867;52.480;6.056;2023-12-29T01:31:20;99995.44;;;8.82;100.00
60015;BME280;45867;52.480;6.056;2023-12-29T01:33:49;100001.66;;;8.96;100.00
60015;BME280;45867;52.480;6.056;2023-12-29T01:36:21;99975.31;;;8.86;100.00
60015;BME280;45867;52.480;6.056;2023-12-29T01:38:51;99972.19;;;8.84;100.00
60015;BME280;45867;52.480;6.056;2023-12-29T01:41:20;99978.22;;;8.89;100.00
60015;BME280;45867;52.480;6.056;2023-12-29T01:46:24;99982.94;;;8.93;100.00
60015;BME280;45867;52.480;6.056;2023-12-29T01:48:51;100011.88;;;9.08;100.00
60015;BME280;45867;52.480;6.056;2023-12-29T01:51:21;100047.81;;;9.14;100.00
60015;BME280;45867;52.480;6.056;2023-12-29T01:53:58;100064.97;;;9.17;100.00
60015;BME280;45867;52.480;6.056;2023-12-29T01:56:27;100040.78;;;8.94;100.00
60015;BME280;45867;52.480;6.056;2023-12-29T01:58:55;100086.16;;;9.11;100.00
60015;BME280;45867;52.480;6.056;2023-12-29T02:01:33;100118.38;;;9.14;100.00
60015;BME280;45867;52.480;6.056;2023-12-29T02:04:01;100156.41;;;9.18;100.00
60015;BME280;45867;52.480;6.056;2023-12-29T02:06:28;100179.44;;;9.17;100.00
60015;BME280;45867;52.480;6.056;2023-12-29T02:08:55;100202.44;;;9.17;100.00
60015;BME280;45867;52.480;6.056;2023-12-29T02:11:21;100248.41;;;9.21;100.00
60015;BME280;45867;52.480;6.056;2023-12-29T02:13:48;100286.19;;;9.26;100.00
60015;BME280;45867;52.480;6.056;2023-12-29T02:16:52;100328.47;;;9.37;100.00
60015;BME280;45867;52.480;6.056;2023-12-29T02:19:25;100356.19;;;9.49;100.00
60015;BME280;45867;52.480;6.056;2023-12-29T02:21:55;100386.63;;;9.42;100.00
60015;BME280;45867;52.480;6.056;2023-12-29T02:24:22;100408.59;;;9.32;100.00
60015;BME280;45867;52.480;6.056;2023-12-29T02:26:58;100447.44;;;9.47;100.00
60015;BME280;45867;52.480;6.056;2023-12-29T02:29:32;100451.41;;;9.44;100.00
60015;BME280;45867;52.480;6.056;2023-12-29T02:32:00;100487.91;;;9.52;100.00
60015;BME280;45867;52.480;6.056;2023-12-29T02:34:32;100500.84;;;9.44;100.00
60015;BME280;45867;52.480;6.056;2023-12-29T02:37:00;100526.25;;;9.40;100.00
60015;BME280;45867;52.480;6.056;2023-12-29T02:39:27;100560.09;;;9.48;100.00
60015;BME280;45867;52.480;6.056;2023-12-29T02:41:54;100522.03;;;9.28;100.00
60015;BME280;45867;52.480;6.056;2023-12-29T02:44:26;100471.78;;;9.08;100.00
60015;BME280;45867;52.480;6.056;2023-12-29T02:46:53;100474.97;;;9.15;100.00
60015;BME280;45867;52.480;6.056;2023-12-29T02:49:20;100454.06;;;9.24;100.00
60015;BME280;45867;52.480;6.056;2023-12-29T02:51:47;100412.06;;;9.02;100.00
60015;BME280;45867;52.480;6.056;2023-12-29T02:54:19;100403.34;;;9.17;100.00
60015;BME280;45867;52.480;6.056;2023-12-29T02:56:51;100405.94;;;9.32;100.00
60015;BME280;45867;52.480;6.056;2023-12-29T02:59:18;100418.66;;;9.20;100.00
60015;BME280;45867;52.480;6.056;2023-12-29T03:01:45;100418.38;;;9.21;100.00
60015;BME280;45867;52.480;6.056;2023-12-29T03:04:12;100428.41;;;9.19;100.00
60015;BME280;45867;52.480;6.056;2023-12-29T03:06:40;100406.75;;;9.17;100.00
60015;BME280;45867;52.480;6.056;2023-12-29T03:09:07;100391.69;;;9.13;100.00
60015;BME280;45867;52.480;6.056;2023-12-29T03:11:33;100406.22;;;9.20;100.00
60015;BME280;45867;52.480;6.056;2023-12-29T03:14:00;100443.50;;;9.34;100.00
60015;BME280;45867;52.480;6.056;2023-12-29T03:16:27;100432.13;;;9.23;100.00
60015;BME280;45867;52.480;6.056;2023-12-29T03:18:53;100468.06;;;9.24;100.00
60015;BME280;45867;52.480;6.056;2023-12-29T03:21:20;100491.09;;;9.34;100.00
60015;BME280;45867;52.480;6.056;2023-12-29T03:23:51;100466.25;;;9.15;100.00
60015;BME280;45867;52.480;6.056;2023-12-29T03:26:20;100506.16;;;9.28;100.00
60015;BME280;45867;52.480;6.056;2023-12-29T03:28:50;100504.56;;;9.17;100.00
60015;BME280;45867;52.480;6.056;2023-12-29T03:31:20;100513.81;;;9.35;100.00
60015;BME280;45867;52.480;6.056;2023-12-29T03:33:47;100534.72;;;9.37;100.00
60015;BME280;45867;52.480;6.056;2023-12-29T03:36:16;100558.25;;;9.43;100.00
60015;BME280;45867;52.480;6.056;2023-12-29T03:38:47;100536.31;;;9.22;100.00
60015;BME280;45867;52.480;6.056;2023-12-29T03:41:22;100578.88;;;9.26;100.00
60015;BME280;45867;52.480;6.056;2023-12-29T03:43:49;100585.22;;;9.15;100.00
60015;BME280;45867;52.480;6.056;2023-12-29T03:46:20;100609.53;;;9.32;100.00
60015;BME280;45867;52.480;6.056;2023-12-29T03:48:50;100611.16;;;9.33;100.00
60015;BME280;45867;52.480;6.056;2023-12-29T03:51:20;100637.56;;;9.38;100.00
60015;BME280;45867;52.480;6.056;2023-12-29T03:53:47;100643.13;;;9.26;100.00
60015;BME280;45867;52.480;6.056;2023-12-29T03:56:18;100654.75;;;9.20;100.00
60015;BME280;45867;52.480;6.056;2023-12-29T03:58:46;100666.41;;;9.34;100.00
60015;BME280;45867;52.480;6.056;2023-12-29T04:01:16;100664.56;;;9.35;100.00
60015;BME280;45867;52.480;6.056;2023-12-29T04:03:45;100675.94;;;9.30;100.00
60015;BME280;45867;52.480;6.056;2023-12-29T04:06:12;100675.38;;;9.23;100.00
60015;BME280;45867;52.480;6.056;2023-12-29T04:08:38;100671.91;;;9.18;100.00
60015;BME280;45867;52.480;6.056;2023-12-29T04:11:05;100671.91;;;9.18;100.00
60015;BME280;45867;52.480;6.056;2023-12-29T04:13:34;100681.72;;;9.22;100.00
60015;BME280;45867;52.480;6.056;2023-12-29T04:16:01;100683.81;;;9.20;100.00
60015;BME280;45867;52.480;6.056;2023-12-29T04:18:28;100682.72;;;9.11;100.00
60015;BME280;45867;52.480;6.056;2023-12-29T04:20:57;100690.38;;;9.02;100.00
60015;BME280;45867;52.480;6.056;2023-12-29T04:23:23;100688.56;;;9.13;100.00
60015;BME280;45867;52.480;6.056;2023-12-29T04:25:50;100681.69;;;9.12;100.00
60015;BME280;45867;52.480;6.056;2023-12-29T04:28:20;100678.47;;;9.05;100.00
60015;BME280;45867;52.480;6.056;2023-12-29T04:30:49;100691.97;;;9.14;100.00
60015;BME280;45867;52.480;6.056;2023-12-29T04:33:16;100703.06;;;9.05;100.00
60015;BME280;45867;52.480;6.056;2023-12-29T04:35:45;100748.03;;;9.16;100.00
60015;BME280;45867;52.480;6.056;2023-12-29T04:38:13;100768.97;;;9.22;100.00
60015;BME280;45867;52.480;6.056;2023-12-29T04:40:40;100758.31;;;9.07;100.00
60015;BME280;45867;52.480;6.056;2023-12-29T04:43:07;100793.50;;;9.13;100.00
60015;BME280;45867;52.480;6.056;2023-12-29T04:45:34;100803.56;;;9.16;100.00
60015;BME280;45867;52.480;6.056;2023-12-29T04:48:00;100797.91;;;8.97;100.00
60015;BME280;45867;52.480;6.056;2023-12-29T04:50:27;100795.09;;;9.08;100.00
60015;BME280;45867;52.480;6.056;2023-12-29T04:52:57;100798.00;;;9.12;100.00
60015;BME280;45867;52.480;6.056;2023-12-29T04:55:26;100788.97;;;9.08;100.00
60015;BME280;45867;52.480;6.056;2023-12-29T04:57:55;100776.59;;;9.08;100.00
60015;BME280;45867;52.480;6.056;2023-12-29T05:00:21;100748.00;;;9.00;100.00
60015;BME280;45867;52.480;6.056;2023-12-29T05:02:48;100745.09;;;9.02;100.00
60015;BME280;45867;52.480;6.056;2023-12-29T05:05:15;100712.75;;;8.84;100.00
60015;BME280;45867;52.480;6.056;2023-12-29T05:07:42;100703.75;;;8.80;100.00
60015;BME280;45867;52.480;6.056;2023-12-29T05:10:08;100711.72;;;8.91;100.00
60015;BME280;45867;52.480;6.056;2023-12-29T05:12:35;100666.97;;;8.69;100.00
60015;BME280;45867;52.480;6.056;2023-12-29T05:15:02;100696.94;;;8.89;100.00
60015;BME280;45867;52.480;6.056;2023-12-29T05:17:29;100657.50;;;8.78;100.00
60015;BME280;45867;52.480;6.056;2023-12-29T05:19:57;100660.72;;;8.85;100.00
60015;BME280;45867;52.480;6.056;2023-12-29T05:22:23;100671.03;;;8.92;100.00
60015;BME280;45867;52.480;6.056;2023-12-29T05:24:50;100664.72;;;8.93;100.00
60015;BME280;45867;52.480;6.056;2023-12-29T05:27:16;100630.00;;;8.74;100.00
60015;BME280;45867;52.480;6.056;2023-12-29T05:29:50;100657.28;;;8.84;100.00
60015;BME280;45867;52.480;6.056;2023-12-29T05:32:19;100613.09;;;8.75;100.00
60015;BME280;45867;52.480;6.056;2023-12-29T05:34:45;100624.78;;;8.89;100.00
60015;BME280;45867;52.480;6.056;2023-12-29T05:37:12;100592.75;;;8.75;100.00
60015;BME280;45867;52.480;6.056;2023-12-29T05:39:41;100598.84;;;8.81;100.00
60015;BME280;45867;52.480;6.056;2023-12-29T05:42:08;100561.03;;;8.60;100.00
60015;BME280;45867;52.480;6.056;2023-12-29T05:44:38;100582.50;;;8.84;100.00
60015;BME280;45867;52.480;6.056;2023-12-29T05:47:04;100573.75;;;8.83;100.00
60015;BME280;45867;52.480;6.056;2023-12-29T05:49:31;100540.72;;;8.86;100.00
60015;BME280;45867;52.480;6.056;2023-12-29T05:51:59;100521.19;;;8.77;100.00
60015;BME280;45867;52.480;6.056;2023-12-29T05:54:26;100526.75;;;8.96;100.00
60015;BME280;45867;52.480;6.056;2023-12-29T05:56:53;100519.88;;;8.84;100.00
60015;BME280;45867;52.480;6.056;2023-12-29T05:59:23;100518.28;;;8.83;100.00
60015;BME280;45867;52.480;6.056;2023-12-29T06:01:49;100473.84;;;8.70;100.00
60015;BME280;45867;52.480;6.056;2023-12-29T06:04:16;100514.31;;;8.91;100.00
60015;BME280;45867;52.480;6.056;2023-12-29T06:06:46;100530.44;;;9.00;100.00
60015;BME280;45867;52.480;6.056;2023-12-29T06:09:15;100528.59;;;9.05;100.00
60015;BME280;45867;52.480;6.056;2023-12-29T06:11:45;100535.47;;;8.96;100.00
60015;BME280;45867;52.480;6.056;2023-12-29T06:14:11;100555.84;;;9.01;100.00
60015;BME280;45867;52.480;6.056;2023-12-29T06:16:38;100559.81;;;8.98;100.00
60015;BME280;45867;52.480;6.056;2023-12-29T06:19:10;100567.19;;;8.96;100.00
60015;BME280;45867;52.480;6.056;2023-12-29T06:21:46;100576.47;;;9.09;100.00
60015;BME280;45867;52.480;6.056;2023-12-29T06:24:15;100572.22;;;9.08;100.00
60015;BME280;45867;52.480;6.056;2023-12-29T06:26:42;100568.50;;;8.94;100.00
60015;BME280;45867;52.480;6.056;2023-12-29T06:29:10;100587.81;;;9.04;100.00
60015;BME280;45867;52.480;6.056;2023-12-29T06:31:40;100603.66;;;8.99;100.00
60015;BME280;45867;52.480;6.056;2023-12-29T06:34:09;100630.16;;;9.15;100.00
60015;BME280;45867;52.480;6.056;2023-12-29T06:36:39;100621.38;;;8.99;100.00
60015;BME280;45867;52.480;6.056;2023-12-29T06:39:09;100616.34;;;8.92;100.00
60015;BME280;45867;52.480;6.056;2023-12-29T06:41:36;100617.16;;;8.98;100.00
60015;BME280;45867;52.480;6.056;2023-12-29T06:44:02;100625.63;;;9.10;100.00
60015;BME280;45867;52.480;6.056;2023-12-29T06:46:30;100606.56;;;9.03;100.00
60015;BME280;45867;52.480;6.056;2023-12-29T06:48:59;100607.09;;;9.00;100.00
60015;BME280;45867;52.480;6.056;2023-12-29T06:51:26;100587.25;;;8.87;100.00
60015;BME280;45867;52.480;6.056;2023-12-29T06:53:54;100605.03;;;9.12;100.00
60015;BME280;45867;52.480;6.056;2023-12-29T06:56:20;100600.25;;;9.09;100.00
60015;BME280;45867;52.480;6.056;2023-12-29T06:58:58;100596.06;;;9.23;100.00
60015;BME280;45867;52.480;6.056;2023-12-29T07:01:25;100571.19;;;9.14;100.00
60015;BME280;45867;52.480;6.056;2023-12-29T07:03:52;100602.38;;;9.27;100.00
60015;BME280;45867;52.480;6.056;2023-12-29T07:06:22;100588.88;;;9.03;100.00
60015;BME280;45867;52.480;6.056;2023-12-29T07:08:49;100629.88;;;9.16;100.00
60015;BME280;45867;52.480;6.056;2023-12-29T07:11:19;100644.97;;;9.26;100.00
60015;BME280;45867;52.480;6.056;2023-12-29T07:13:46;100651.03;;;9.16;100.00
60015;BME280;45867;52.480;6.056;2023-12-29T07:16:13;100666.09;;;9.21;100.00
60015;BME280;45867;52.480;6.056;2023-12-29T07:18:43;100671.41;;;9.26;100.00
60015;BME280;45867;52.480;6.056;2023-12-29T07:21:10;100684.13;;;9.34;100.00
60015;BME280;45867;52.480;6.056;2023-12-29T07:23:38;100658.69;;;9.13;100.00
60015;BME280;45867;52.480;6.056;2023-12-29T07:26:05;100717.22;;;9.42;100.00
60015;BME280;45867;52.480;6.056;2023-12-29T07:28:32;100711.94;;;9.47;100.00
60015;BME280;45867;52.480;6.056;2023-12-29T07:31:02;100696.00;;;9.26;100.00
60015;BME280;45867;52.480;6.056;2023-12-29T07:33:30;100710.56;;;9.34;100.00
60015;BME280;45867;52.480;6.056;2023-12-29T07:35:56;100735.75;;;9.47;100.00
60015;BME280;45867;52.480;6.056;2023-12-29T07:38:24;100740.22;;;9.46;100.00
60015;BME280;45867;52.480;6.056;2023-12-29T07:40:51;100703.41;;;9.29;100.00
60015;BME280;45867;52.480;6.056;2023-12-29T07:43:21;100706.88;;;9.40;100.00
60015;BME280;45867;52.480;6.056;2023-12-29T07:45:48;100703.94;;;9.26;100.00
60015;BME280;45867;52.480;6.056;2023-12-29T07:48:19;100707.66;;;9.36;100.00
60015;BME280;45867;52.480;6.056;2023-12-29T07:50:50;100722.75;;;9.40;100.00
60015;BME280;45867;52.480;6.056;2023-12-29T07:53:20;100752.94;;;9.54;100.00
60015;BME280;45867;52.480;6.056;2023-12-29T07:55:53;100749.50;;;9.54;100.00
60015;BME280;45867;52.480;6.056;2023-12-29T07:58:20;100747.91;;;9.48;100.00
60015;BME280;45867;52.480;6.056;2023-12-29T08:00:47;100723.81;;;9.39;100.00
60015;BME280;45867;52.480;6.056;2023-12-29T08:03:21;100731.22;;;9.37;100.00
60015;BME280;45867;52.480;6.056;2023-12-29T08:05:49;100738.38;;;9.47;100.00
60015;BME280;45867;52.480;6.056;2023-12-29T08:08:16;100738.09;;;9.43;100.00
60015;BME280;45867;52.480;6.056;2023-12-29T08:10:45;100711.63;;;9.38;100.00
60015;BME280;45867;52.480;6.056;2023-12-29T08:13:12;100743.94;;;9.50;100.00
60015;BME280;45867;52.480;6.056;2023-12-29T08:15:39;100744.75;;;9.56;100.00
60015;BME280;45867;52.480;6.056;2023-12-29T08:18:06;100720.09;;;9.40;100.00
60015;BME280;45867;52.480;6.056;2023-12-29T08:20:33;100739.72;;;9.49;100.00
60015;BME280;45867;52.480;6.056;2023-12-29T08:22:59;100738.66;;;9.50;100.00
60015;BME280;45867;52.480;6.056;2023-12-29T08:25:29;100721.72;;;9.41;100.00
60015;BME280;45867;52.480;6.056;2023-12-29T08:27:56;100711.38;;;9.34;100.00
60015;BME280;45867;52.480;6.056;2023-12-29T08:30:24;100694.44;;;9.25;100.00
60015;BME280;45867;52.480;6.056;2023-12-29T08:32:50;100705.81;;;9.36;100.00
60015;BME280;45867;52.480;6.056;2023-12-29T08:35:20;100689.97;;;9.36;100.00
60015;BME280;45867;52.480;6.056;2023-12-29T08:37:49;100686.25;;;9.42;100.00
60015;BME280;45867;52.480;6.056;2023-12-29T08:40:16;100693.13;;;9.38;100.00
60015;BME280;45867;52.480;6.056;2023-12-29T08:42:44;100698.69;;;9.42;100.00
60015;BME280;45867;52.480;6.056;2023-12-29T08:45:11;100695.00;;;9.48;100.00
60015;BME280;45867;52.480;6.056;2023-12-29T08:47:39;100678.34;;;9.47;100.00
60015;BME280;45867;52.480;6.056;2023-12-29T08:50:06;100662.47;;;9.42;100.00
60015;BME280;45867;52.480;6.056;2023-12-29T08:52:33;100623.28;;;9.19;100.00
60015;BME280;45867;52.480;6.056;2023-12-29T08:55:00;100613.50;;;9.14;100.00
60015;BME280;45867;52.480;6.056;2023-12-29T08:57:31;100589.41;;;9.05;100.00
60015;BME280;45867;52.480;6.056;2023-12-29T08:59:57;100541.81;;;8.90;100.00
60015;BME280;45867;52.480;6.056;2023-12-29T09:02:24;100518.81;;;8.91;100.00
60015;BME280;45867;52.480;6.056;2023-12-29T09:04:50;100477.84;;;8.88;100.00
60015;BME280;45867;52.480;6.056;2023-12-29T09:07:20;100403.88;;;8.68;100.00
60015;BME280;45867;52.480;6.056;2023-12-29T09:09:47;100387.75;;;8.84;100.00
60015;BME280;45867;52.480;6.056;2023-12-29T09:12:14;100356.84;;;8.90;100.00
60015;BME280;45867;52.480;6.056;2023-12-29T09:14:41;100315.66;;;8.74;100.00
60015;BME280;45867;52.480;6.056;2023-12-29T09:17:13;100323.28;;;8.91;100.00
60015;BME280;45867;52.480;6.056;2023-12-29T09:19:40;100255.66;;;8.79;100.00
60015;BME280;45867;52.480;6.056;2023-12-29T09:22:10;100225.28;;;8.82;100.00
60015;BME280;45867;52.480;6.056;2023-12-29T09:24:41;100222.63;;;8.82;100.00
60015;BME280;45867;52.480;6.056;2023-12-29T09:27:28;100202.81;;;8.84;100.00
60015;BME280;45867;52.480;6.056;2023-12-29T09:29:55;100185.66;;;8.82;100.00
60015;BME280;45867;52.480;6.056;2023-12-29T09:32:24;100183.00;;;8.82;100.00
60015;BME280;45867;52.480;6.056;2023-12-29T09:34:52;100208.59;;;8.92;100.00
60015;BME280;45867;52.480;6.056;2023-12-29T09:37:22;100201.75;;;8.80;100.00
60015;BME280;45867;52.480;6.056;2023-12-29T09:39:49;100211.78;;;8.88;100.00
60015;BME280;45867;52.480;6.056;2023-12-29T09:42:22;100223.91;;;8.95;100.00
60015;BME280;45867;52.480;6.056;2023-12-29T09:44:51;100223.09;;;9.04;100.00
60015;BME280;45867;52.480;6.056;2023-12-29T09:47:23;100219.13;;;9.07;100.00
60015;BME280;45867;52.480;6.056;2023-12-29T09:49:53;100243.91;;;9.21;100.00
60015;BME280;45867;52.480;6.056;2023-12-29T09:52:21;100236.19;;;9.30;100.00
60015;BME280;45867;52.480;6.056;2023-12-29T09:54:51;100247.84;;;9.29;100.00
60015;BME280;45867;52.480;6.056;2023-12-29T09:57:21;100225.38;;;9.21;100.00
60015;BME280;45867;52.480;6.056;2023-12-29T09:59:50;100230.72;;;9.11;100.00
60015;BME280;45867;52.480;6.056;2023-12-29T10:02:19;100261.59;;;9.31;100.00
60015;BME280;45867;52.480;6.056;2023-12-29T10:04:46;100244.94;;;9.25;100.00
60015;BME280;45867;52.480;6.056;2023-12-29T10:07:23;100256.81;;;9.33;100.00
60015;BME280;45867;52.480;6.056;2023-12-29T10:09:53;100244.63;;;9.37;100.00
60015;BME280;45867;52.480;6.056;2023-12-29T10:12:21;100227.25;;;9.16;100.00
60015;BME280;45867;52.480;6.056;2023-12-29T10:17:28;100239.03;;;9.44;100.00
60015;BME280;45867;52.480;6.056;2023-12-29T10:22:54;100228.78;;;9.27;100.00
60015;BME280;45867;52.480;6.056;2023-12-29T10:25:24;100263.34;;;9.46;100.00
60015;BME280;45867;52.480;6.056;2023-12-29T10:27:51;100271.28;;;9.46;100.00
60015;BME280;45867;52.480;6.056;2023-12-29T10:30:18;100279.50;;;9.44;100.00
60015;BME280;45867;52.480;6.056;2023-12-29T10:32:56;100323.84;;;9.63;100.00
60015;BME280;45867;52.480;6.056;2023-12-29T10:35:23;100341.03;;;9.60;100.00
60015;BME280;45867;52.480;6.056;2023-12-29T10:37:53;100336.03;;;9.64;100.00
60015;BME280;45867;52.480;6.056;2023-12-29T10:40:25;100384.63;;;9.78;100.00
60015;BME280;45867;52.480;6.056;2023-12-29T10:42:55;100433.56;;;9.91;100.00
60015;BME280;45867;52.480;6.056;2023-12-29T10:45:22;100454.50;;;9.77;100.00
60015;BME280;45867;52.480;6.056;2023-12-29T10:47:49;100519.03;;;9.96;100.00
60015;BME280;45867;52.480;6.056;2023-12-29T10:50:18;100541.56;;;9.78;100.00
60015;BME280;45867;52.480;6.056;2023-12-29T10:53:15;100584.44;;;9.81;100.00
60015;BME280;45867;52.480;6.056;2023-12-29T10:55:45;100559.56;;;9.56;100.00
60015;BME280;45867;52.480;6.056;2023-12-29T10:58:11;100600.28;;;9.60;100.00
60015;BME280;45867;52.480;6.056;2023-12-29T11:00:41;100587.34;;;9.64;100.00
60015;BME280;45867;52.480;6.056;2023-12-29T11:03:15;100566.47;;;9.47;100.00
60015;BME280;45867;52.480;6.056;2023-12-29T11:05:44;100559.84;;;9.49;100.00
60015;BME280;45867;52.480;6.056;2023-12-29T11:08:21;100522.81;;;9.44;100.00
60015;BME280;45867;52.480;6.056;2023-12-29T11:11:02;100479.44;;;9.30;100.00
60015;BME280;45867;52.480;6.056;2023-12-29T11:13:40;100462.00;;;9.29;100.00
60015;BME280;45867;52.480;6.056;2023-12-29T11:16:34;100465.44;;;9.45;100.00
60015;BME280;45867;52.480;6.056;2023-12-29T11:19:25;100433.94;;;9.43;100.00
60015;BME280;45867;52.480;6.056;2023-12-29T11:21:58;100450.34;;;9.50;100.00
60015;BME280;45867;52.480;6.056;2023-12-29T11:24:53;100466.19;;;9.61;100.00
60015;BME280;45867;52.480;6.056;2023-12-29T11:27:22;100505.03;;;9.75;100.00
60015;BME280;45867;52.480;6.056;2023-12-29T11:29:49;100532.03;;;9.72;100.00
60015;BME280;45867;52.480;6.056;2023-12-29T11:32:26;100547.38;;;9.75;100.00
60015;BME280;45867;52.480;6.056;2023-12-29T11:35:03;100574.63;;;9.91;100.00
60015;BME280;45867;52.480;6.056;2023-12-29T11:40:55;100605.06;;;9.84;100.00
60015;BME280;45867;52.480;6.056;2023-12-29T11:43:30;100607.44;;;9.70;100.00
60015;BME280;45867;52.480;6.056;2023-12-29T11:45:59;100627.56;;;9.81;100.00
60015;BME280;45867;52.480;6.056;2023-12-29T11:48:57;100658.50;;;10.01;100.00
60015;BME280;45867;52.480;6.056;2023-12-29T11:51:50;100658.25;;;9.92;100.00
60015;BME280;45867;52.480;6.056;2023-12-29T11:54:23;100656.91;;;9.85;100.00
60015;BME280;45867;52.480;6.056;2023-12-29T11:56:58;100673.34;;;9.87;100.00
60015;BME280;45867;52.480;6.056;2023-12-29T11:59:25;100695.31;;;9.92;100.00
60015;BME280;45867;52.480;6.056;2023-12-29T12:01:57;100678.91;;;9.80;100.00
60015;BME280;45867;52.480;6.056;2023-12-29T12:04:39;100695.56;;;10.01;100.00
60015;BME280;45867;52.480;6.056;2023-12-29T12:12:55;100700.59;;;9.97;100.00
60015;BME280;45867;52.480;6.056;2023-12-29T12:17:59;100743.50;;;10.05;100.00
60015;BME280;45867;52.480;6.056;2023-12-29T12:20:28;100759.41;;;10.10;100.00
60015;BME280;45867;52.480;6.056;2023-12-29T12:22:59;100801.22;;;10.03;100.00
60015;BME280;45867;52.480;6.056;2023-12-29T12:25:30;100829.03;;;10.15;100.00
60015;BME280;45867;52.480;6.056;2023-12-29T12:28:00;100844.38;;;10.13;100.00
60015;BME280;45867;52.480;6.056;2023-12-29T12:33:20;100843.31;;;9.99;100.00
60015;BME280;45867;52.480;6.056;2023-12-29T12:35:59;100867.72;;;10.21;100.00
60015;BME280;45867;52.480;6.056;2023-12-29T12:38:25;100870.63;;;10.15;100.00
60015;BME280;45867;52.480;6.056;2023-12-29T12:40:52;100878.53;;;10.05;100.00
60015;BME280;45867;52.480;6.056;2023-12-29T12:43:18;100886.41;;;9.89;100.00
60015;BME280;45867;52.480;6.056;2023-12-29T12:45:51;100884.47;;;9.64;100.00
60015;BME280;45867;52.480;6.056;2023-12-29T12:48:44;100876.19;;;9.45;100.00
60015;BME280;45867;52.480;6.056;2023-12-29T12:51:15;100879.38;;;9.47;100.00
60015;BME280;45867;52.480;6.056;2023-12-29T12:53:42;100873.06;;;9.59;100.00
60015;BME280;45867;52.480;6.056;2023-12-29T12:56:10;100842.38;;;9.58;100.00
60015;BME280;45867;52.480;6.056;2023-12-29T12:58:37;100815.13;;;9.57;100.00
60015;BME280;45867;52.480;6.056;2023-12-29T13:01:04;100795.78;;;9.51;100.00
60015;BME280;45867;52.480;6.056;2023-12-29T13:03:32;100796.06;;;9.60;100.00
60015;BME280;45867;52.480;6.056;2023-12-29T13:06:01;100819.97;;;9.81;100.00
60015;BME280;45867;52.480;6.056;2023-12-29T13:08:30;100840.63;;;9.89;100.00
60015;BME280;45867;52.480;6.056;2023-12-29T13:11:08;100812.56;;;9.83;100.00
60015;BME280;45867;52.480;6.056;2023-12-29T13:13:39;100831.34;;;9.86;100.00
60015;BME280;45867;52.480;6.056;2023-12-29T13:16:06;100828.44;;;9.77;100.00
60015;BME280;45867;52.480;6.056;2023-12-29T13:18:33;100849.31;;;9.79;100.00
60015;BME280;45867;52.480;6.056;2023-12-29T13:21:01;100924.53;;;9.88;100.00
60015;BME280;45867;52.480;6.056;2023-12-29T13:23:31;100961.31;;;9.90;100.00
60015;BME280;45867;52.480;6.056;2023-12-29T13:26:09;100983.81;;;9.82;100.00